Time;durP1;ratioP1;P1;durP2;ratioP2;P2;SDS_P1;SDS_P2;PMS_P1;PMS_P2;Temp;Humidity;BMP_temperature;BMP_pressure;BME280_temperature;BME280_humidity;BME280_pressure;Samples;Min_cycle;Max_cycle;Signal;HPM_P1;HPM_P2
2022/11/11 00:00:15;;;;;;;10.93;4.18;;;;;;;;;;5086567;28;20059;-61
2022/11/11 00:02:41;;;;;;;10.15;4.00;;;;;;;;;;5086246;28;20655;-61
2022/11/11 00:05:08;;;;;;;9.93;4.00;;;;;;;;;;5086958;28;20031;-67
2022/11/11 00:07:34;;;;;;;9.80;3.85;;;;;;;;;;5087055;28;20036;-63
2022/11/11 00:10:01;;;;;;;11.18;4.18;;;;;;;;;;5085529;28;20036;-62
2022/11/11 00:12:28;;;;;;;13.65;4.38;;;;;;;;;;5086034;28;20081;-61
2022/11/11 00:14:54;;;;;;;12.55;3.83;;;;;;;;;;5072259;28;20035;-62
2022/11/11 00:25:38;;;;;;;15.25;4.25;;;;;;;;;;5086191;28;20039;-63
2022/11/11 00:28:04;;;;;;;15.40;4.53;;;;;;;;;;5084414;28;20420;-62
2022/11/11 00:30:31;;;;;;;10.52;3.97;;;;;;;;;;5085808;28;20051;-65
2022/11/11 00:32:58;;;;;;;19.50;4.78;;;;;;;;;;5062082;28;20721;-64
2022/11/11 00:38:44;;;;;;;13.48;3.97;;;;;;;;;;5086743;28;20139;-65
2022/11/11 00:40:57;;;;;;;9.80;4.05;;;;;;;;;;5085764;28;20534;-63
2022/11/11 00:43:25;;;;;;;17.33;5.18;;;;;;;;;;5084785;28;20433;-64
2022/11/11 00:45:52;;;;;;;18.33;4.70;;;;;;;;;;5087550;28;20663;-64
2022/11/11 00:51:04;;;;;;;9.15;4.18;;;;;;;;;;5090311;28;20143;-64
2022/11/11 00:53:36;;;;;;;13.80;4.78;;;;;;;;;;5089608;28;20390;-62
2022/11/11 00:56:02;;;;;;;11.50;3.97;;;;;;;;;;5089228;28;20139;-65
2022/11/11 00:58:29;;;;;;;22.42;4.97;;;;;;;;;;5089257;28;20989;-63
2022/11/11 01:00:57;;;;;;;13.07;4.82;;;;;;;;;;5090014;28;20439;-64
2022/11/11 01:03:24;;;;;;;28.70;6.00;;;;;;;;;;5076299;28;20601;-64
2022/11/11 01:05:50;;;;;;;12.77;6.68;;;;;;;;;;5088880;28;20032;-64
2022/11/11 01:08:17;;;;;;;18.92;6.88;;;;;;;;;;5068966;28;20034;-63
2022/11/11 01:10:45;;;;;;;18.75;5.65;;;;;;;;;;5091110;28;20116;-62
2022/11/11 01:13:19;;;;;;;12.80;5.28;;;;;;;;;;5090411;28;21760;-63
2022/11/11 01:15:47;;;;;;;21.30;5.72;;;;;;;;;;5089416;28;20069;-63
2022/11/11 01:18:15;;;;;;;18.00;5.70;;;;;;;;;;5087693;28;20024;-64
2022/11/11 01:20:42;;;;;;;17.70;5.35;;;;;;;;;;5089247;28;20027;-65
2022/11/11 01:23:10;;;;;;;20.73;5.20;;;;;;;;;;5089576;28;20469;-61
2022/11/11 01:25:37;;;;;;;20.15;5.70;;;;;;;;;;5090707;28;20032;-63
2022/11/11 01:28:04;;;;;;;15.07;5.38;;;;;;;;;;5087869;28;20109;-64
2022/11/11 01:30:32;;;;;;;18.38;4.97;;;;;;;;;;5091590;28;20135;-63
2022/11/11 01:32:59;;;;;;;18.40;5.15;;;;;;;;;;5090738;28;20020;-61
2022/11/11 01:35:26;;;;;;;15.48;5.90;;;;;;;;;;5088949;28;20532;-63
2022/11/11 01:37:53;;;;;;;17.83;5.35;;;;;;;;;;5089517;28;20119;-63
2022/11/11 01:40:20;;;;;;;12.02;4.30;;;;;;;;;;5088054;28;20459;-63
2022/11/11 01:42:53;;;;;;;17.23;5.03;;;;;;;;;;5088279;28;20039;-63
2022/11/11 01:45:39;;;;;;;11.82;4.72;;;;;;;;;;5090394;27;20032;-65
2022/11/11 01:50:54;;;;;;;7.82;3.95;;;;;;;;;;5089193;28;20055;-63
2022/11/11 01:53:21;;;;;;;12.80;4.57;;;;;;;;;;5088939;28;20027;-63
2022/11/11 01:55:48;;;;;;;14.07;4.65;;;;;;;;;;5089590;28;20027;-62
2022/11/11 01:58:16;;;;;;;13.75;4.50;;;;;;;;;;5087817;28;20068;-65
2022/11/11 02:00:42;;;;;;;20.38;5.10;;;;;;;;;;5088387;28;20916;-63
2022/11/11 02:03:10;;;;;;;19.45;4.28;;;;;;;;;;5088456;28;20047;-65
2022/11/11 02:05:44;;;;;;;9.35;4.50;;;;;;;;;;5087911;28;20118;-65
2022/11/11 02:08:30;;;;;;;12.07;4.68;;;;;;;;;;5067050;28;20104;-64
2022/11/11 02:16:52;;;;;;;10.10;3.80;;;;;;;;;;5089291;28;20084;-63
2022/11/11 02:19:22;;;;;;;16.15;4.00;;;;;;;;;;5088124;28;20035;-61
2022/11/11 02:21:55;;;;;;;17.23;5.07;;;;;;;;;;5088517;28;20076;-68
2022/11/11 02:24:22;;;;;;;23.63;4.28;;;;;;;;;;5081431;28;20039;-61
2022/11/11 02:26:50;;;;;;;14.23;4.20;;;;;;;;;;5066480;28;20131;-62
2022/11/11 02:29:18;;;;;;;18.33;3.88;;;;;;;;;;5081973;28;20052;-63
2022/11/11 02:31:45;;;;;;;12.65;3.80;;;;;;;;;;5073789;28;20031;-65
2022/11/11 02:34:11;;;;;;;12.10;3.17;;;;;;;;;;5067859;28;20974;-61
2022/11/11 02:36:38;;;;;;;7.07;3.25;;;;;;;;;;5084006;28;20502;-64
2022/11/11 02:39:05;;;;;;;8.88;4.05;;;;;;;;;;5085936;28;20130;-62
2022/11/11 02:44:16;;;;;;;24.58;4.22;;;;;;;;;;5087804;28;20055;-63
2022/11/11 02:46:43;;;;;;;18.67;3.78;;;;;;;;;;5070890;28;21699;-64
2022/11/11 02:49:10;;;;;;;22.67;3.13;;;;;;;;;;5081018;28;20089;-62
2022/11/11 02:51:36;;;;;;;6.07;2.72;;;;;;;;;;5085412;28;20040;-63
2022/11/11 02:54:03;;;;;;;7.70;3.17;;;;;;;;;;5085384;28;20793;-64
2022/11/11 02:59:16;;;;;;;6.65;2.80;;;;;;;;;;5084722;28;20419;-64
2022/11/11 03:01:42;;;;;;;8.20;3.17;;;;;;;;;;5071804;28;20062;-62
2022/11/11 03:04:29;;;;;;;7.97;3.42;;;;;;;;;;5052591;28;20106;-65
2022/11/11 03:06:55;;;;;;;22.77;3.70;;;;;;;;;;5049726;28;20041;-64
2022/11/11 03:09:22;;;;;;;14.27;3.33;;;;;;;;;;5051118;28;20083;-62
2022/11/11 03:11:49;;;;;;;25.08;3.90;;;;;;;;;;5048398;28;20036;-64
2022/11/11 03:14:15;;;;;;;13.70;3.85;;;;;;;;;;5051080;28;20033;-62
2022/11/11 03:19:27;;;;;;;10.70;2.78;;;;;;;;;;5050122;28;20206;-64
2022/11/11 03:21:54;;;;;;;20.65;2.42;;;;;;;;;;5054418;28;20120;-65
2022/11/11 03:24:21;;;;;;;4.97;2.05;;;;;;;;;;5052601;28;20049;-63
2022/11/11 03:26:48;;;;;;;10.13;2.42;;;;;;;;;;5051487;28;20037;-67
2022/11/11 03:29:14;;;;;;;4.75;1.55;;;;;;;;;;5050434;28;20055;-62
2022/11/11 03:31:41;;;;;;;9.68;2.50;;;;;;;;;;5051365;28;20037;-62
2022/11/11 03:34:17;;;;;;;16.92;2.55;;;;;;;;;;5049957;28;20036;-66
2022/11/11 03:39:32;;;;;;;5.10;1.83;;;;;;;;;;5083326;28;20176;-64
2022/11/11 03:41:59;;;;;;;5.47;2.22;;;;;;;;;;5083607;28;20070;-63
2022/11/11 03:44:27;;;;;;;5.65;1.50;;;;;;;;;;5083280;28;20317;-63
2022/11/11 03:46:54;;;;;;;3.10;1.35;;;;;;;;;;5082585;28;20039;-61
2022/11/11 03:49:21;;;;;;;14.75;2.55;;;;;;;;;;5082180;28;20051;-62
2022/11/11 03:51:47;;;;;;;7.65;1.85;;;;;;;;;;5083397;28;20093;-63
2022/11/11 03:54:14;;;;;;;4.15;2.08;;;;;;;;;;5084478;28;20070;-64
2022/11/11 03:56:40;;;;;;;12.45;2.55;;;;;;;;;;5084478;27;20131;-64
2022/11/11 03:59:07;;;;;;;3.00;1.45;;;;;;;;;;5084139;28;20046;-62
2022/11/11 04:16:04;;;;;;;6.93;2.15;;;;;;;;;;5085133;28;20050;-63
2022/11/11 04:18:06;;;;;;;4.38;1.98;;;;;;;;;;5083973;28;20573;-65
2022/11/11 04:23:18;;;;;;;4.65;2.03;;;;;;;;;;5084464;28;20058;-63
2022/11/11 04:25:52;;;;;;;5.35;1.98;;;;;;;;;;5087421;28;20032;-62
2022/11/11 04:31:03;;;;;;;3.05;1.58;;;;;;;;;;5088437;28;20671;-63
2022/11/11 04:33:30;;;;;;;6.65;2.03;;;;;;;;;;5064402;28;20043;-64
2022/11/11 04:35:57;;;;;;;4.20;1.58;;;;;;;;;;5086323;28;20038;-62
2022/11/11 04:41:11;;;;;;;7.47;1.90;;;;;;;;;;5066911;28;20040;-65
2022/11/11 04:46:25;;;;;;;5.57;2.33;;;;;;;;;;5041191;28;20465;-65
2022/11/11 04:48:51;;;;;;;4.45;2.00;;;;;;;;;;5067722;28;20055;-65
2022/11/11 04:51:18;;;;;;;3.65;1.85;;;;;;;;;;5068249;28;20040;-64
2022/11/11 04:53:44;;;;;;;4.05;1.67;;;;;;;;;;5069715;28;20044;-63
2022/11/11 05:04:26;;;;;;;12.55;1.67;;;;;;;;;;5065344;28;20124;-61
2022/11/11 05:09:38;;;;;;;7.75;2.28;;;;;;;;;;5068213;28;20051;-62
2022/11/11 05:12:05;;;;;;;5.15;1.75;;;;;;;;;;5068620;28;20093;-64
2022/11/11 05:22:46;;;;;;;4.43;2.25;;;;;;;;;;5067538;28;20090;-62
2022/11/11 05:25:25;;;;;;;3.05;1.17;;;;;;;;;;5068637;28;20626;-63
2022/11/11 05:27:53;;;;;;;3.22;1.45;;;;;;;;;;5066236;28;20230;-64
2022/11/11 05:30:20;;;;;;;4.80;1.83;;;;;;;;;;5067168;28;20105;-63
2022/11/11 05:32:46;;;;;;;4.32;1.50;;;;;;;;;;5067928;28;20043;-62
2022/11/11 05:35:14;;;;;;;4.45;2.17;;;;;;;;;;5063005;28;20136;-63
2022/11/11 05:37:41;;;;;;;4.18;1.88;;;;;;;;;;5064702;28;20039;-62
2022/11/11 05:40:08;;;;;;;3.30;1.67;;;;;;;;;;5083874;28;20047;-65
2022/11/11 05:42:35;;;;;;;4.18;2.30;;;;;;;;;;5087051;28;20067;-64
2022/11/11 05:45:01;;;;;;;3.15;1.67;;;;;;;;;;5087785;28;20032;-63
2022/11/11 05:47:28;;;;;;;5.22;2.28;;;;;;;;;;5086764;28;20036;-65
2022/11/11 05:49:55;;;;;;;5.97;2.22;;;;;;;;;;5087941;28;20117;-65
2022/11/11 05:52:21;;;;;;;3.65;1.85;;;;;;;;;;5056368;28;20024;-64
2022/11/11 05:54:48;;;;;;;4.47;2.13;;;;;;;;;;5081754;28;20040;-66
2022/11/11 05:57:14;;;;;;;5.60;2.40;;;;;;;;;;5087970;28;20127;-63
2022/11/11 05:59:42;;;;;;;4.22;2.15;;;;;;;;;;5086412;28;20085;-63
2022/11/11 06:02:09;;;;;;;6.18;2.88;;;;;;;;;;5068673;28;20050;-62
2022/11/11 06:04:36;;;;;;;5.45;1.77;;;;;;;;;;5089607;28;20028;-62
2022/11/11 06:07:03;;;;;;;9.20;2.67;;;;;;;;;;5089839;28;20111;-64
2022/11/11 06:09:29;;;;;;;2.45;1.20;;;;;;;;;;5067941;28;20043;-62
2022/11/11 06:11:56;;;;;;;6.22;1.98;;;;;;;;;;5087622;28;20036;-64
2022/11/11 06:14:22;;;;;;;5.78;1.40;;;;;;;;;;5089008;28;20039;-63
2022/11/11 06:16:49;;;;;;;11.45;2.70;;;;;;;;;;5060298;28;20035;-64
2022/11/11 06:19:15;;;;;;;5.70;2.42;;;;;;;;;;5057218;28;20106;-63
2022/11/11 06:21:57;;;;;;;5.13;2.03;;;;;;;;;;5088206;28;20035;-62
2022/11/11 06:24:24;;;;;;;2.45;1.23;;;;;;;;;;5088779;28;20067;-66
2022/11/11 06:26:51;;;;;;;4.57;1.98;;;;;;;;;;5086654;28;20044;-65
2022/11/11 06:29:17;;;;;;;8.40;2.65;;;;;;;;;;5069278;28;21649;-64
2022/11/11 06:31:44;;;;;;;5.85;1.48;;;;;;;;;;5088814;28;20031;-64
2022/11/11 06:34:11;;;;;;;4.90;2.00;;;;;;;;;;5089271;28;20035;-63
2022/11/11 06:36:37;;;;;;;6.50;1.60;;;;;;;;;;5087395;28;20065;-62
2022/11/11 06:39:04;;;;;;;4.28;1.85;;;;;;;;;;5085922;28;20051;-62
2022/11/11 06:41:30;;;;;;;2.65;1.58;;;;;;;;;;5087712;28;20036;-64
2022/11/11 06:43:57;;;;;;;4.10;1.73;;;;;;;;;;5085538;28;20063;-62
2022/11/11 06:46:24;;;;;;;4.28;2.05;;;;;;;;;;5079685;28;20031;-63
2022/11/11 06:48:51;;;;;;;5.82;1.70;;;;;;;;;;5084271;28;20092;-64
2022/11/11 06:51:18;;;;;;;5.32;2.08;;;;;;;;;;5084490;28;20035;-67
2022/11/11 06:53:45;;;;;;;6.10;1.70;;;;;;;;;;5081261;28;20079;-61
2022/11/11 06:56:12;;;;;;;6.95;2.30;;;;;;;;;;5085265;27;20095;-65
2022/11/11 06:58:38;;;;;;;3.30;1.88;;;;;;;;;;5084598;28;20051;-61
2022/11/11 07:01:05;;;;;;;18.38;3.20;;;;;;;;;;5085989;28;20498;-63
2022/11/11 07:03:32;;;;;;;20.65;6.55;;;;;;;;;;5079868;28;20430;-65
2022/11/11 07:06:03;;;;;;;7.53;3.85;;;;;;;;;;5071630;28;20598;-64
2022/11/11 07:08:30;;;;;;;8.55;4.80;;;;;;;;;;5084331;28;20094;-64
2022/11/11 07:10:56;;;;;;;9.73;3.67;;;;;;;;;;5087024;28;20107;-62
2022/11/11 07:13:23;;;;;;;7.10;3.58;;;;;;;;;;5072115;28;20036;-64
2022/11/11 07:15:50;;;;;;;11.35;4.38;;;;;;;;;;5085076;28;20040;-63
2022/11/11 07:18:16;;;;;;;4.38;2.55;;;;;;;;;;5086743;28;20115;-66
2022/11/11 07:20:43;;;;;;;5.22;2.85;;;;;;;;;;5085704;28;20036;-64
2022/11/11 07:23:09;;;;;;;10.75;3.42;;;;;;;;;;5074597;28;20105;-63
2022/11/11 07:25:36;;;;;;;4.85;2.35;;;;;;;;;;5085464;28;20098;-63
2022/11/11 07:28:02;;;;;;;11.35;5.03;;;;;;;;;;5070478;28;20048;-63
2022/11/11 07:30:29;;;;;;;6.55;2.95;;;;;;;;;;5084641;28;20569;-63
2022/11/11 07:32:56;;;;;;;6.15;2.88;;;;;;;;;;5085578;28;20558;-65
2022/11/11 07:35:23;;;;;;;3.65;1.73;;;;;;;;;;5081655;28;20050;-62
2022/11/11 07:37:49;;;;;;;5.93;2.85;;;;;;;;;;5070714;28;20912;-63
2022/11/11 07:40:17;;;;;;;5.10;2.03;;;;;;;;;;5086282;28;20089;-64
2022/11/11 07:42:43;;;;;;;5.45;2.30;;;;;;;;;;5085981;28;20130;-64
2022/11/11 07:45:11;;;;;;;6.93;3.05;;;;;;;;;;5086856;28;20433;-65
2022/11/11 07:47:37;;;;;;;4.57;2.17;;;;;;;;;;5070423;28;20038;-65
2022/11/11 07:50:04;;;;;;;3.60;2.08;;;;;;;;;;5076690;28;20047;-62
2022/11/11 07:52:31;;;;;;;6.43;2.65;;;;;;;;;;5085721;28;20533;-65
2022/11/11 07:54:58;;;;;;;4.13;1.65;;;;;;;;;;5085513;28;20103;-65
2022/11/11 07:57:25;;;;;;;4.32;1.95;;;;;;;;;;5083914;28;20038;-64
2022/11/11 07:59:52;;;;;;;8.02;2.97;;;;;;;;;;5087316;28;20103;-63
2022/11/11 08:02:18;;;;;;;5.90;2.08;;;;;;;;;;5089154;28;20039;-63
2022/11/11 08:04:45;;;;;;;5.80;2.90;;;;;;;;;;5089299;27;20032;-63
2022/11/11 08:07:11;;;;;;;10.38;3.03;;;;;;;;;;5091401;28;20046;-65
2022/11/11 08:09:38;;;;;;;6.70;2.90;;;;;;;;;;5080678;28;20055;-63
2022/11/11 08:14:50;;;;;;;8.63;2.72;;;;;;;;;;5087904;28;20144;-64
2022/11/11 08:17:17;;;;;;;6.50;2.50;;;;;;;;;;5067431;28;20044;-65
2022/11/11 08:19:43;;;;;;;6.43;2.17;;;;;;;;;;5086015;28;20034;-65
2022/11/11 08:22:10;;;;;;;3.70;2.08;;;;;;;;;;5090431;28;20386;-63
2022/11/11 08:24:37;;;;;;;11.63;2.80;;;;;;;;;;5084298;28;20039;-64
2022/11/11 08:27:03;;;;;;;5.22;2.03;;;;;;;;;;5088850;28;20462;-65
2022/11/11 08:29:30;;;;;;;4.60;2.10;;;;;;;;;;5089472;28;20059;-64
2022/11/11 08:31:57;;;;;;;3.53;1.80;;;;;;;;;;5088822;28;20040;-63
2022/11/11 08:34:23;;;;;;;3.92;2.13;;;;;;;;;;5089390;28;20537;-66
2022/11/11 08:36:50;;;;;;;6.25;2.88;;;;;;;;;;5090419;28;20032;-64
2022/11/11 08:39:17;;;;;;;5.72;3.13;;;;;;;;;;5071855;27;20456;-67
2022/11/11 08:41:43;;;;;;;3.97;2.13;;;;;;;;;;5089423;28;20039;-62
2022/11/11 08:44:10;;;;;;;5.68;2.33;;;;;;;;;;5089591;28;20062;-62
2022/11/11 08:46:37;;;;;;;5.35;2.28;;;;;;;;;;5087304;28;20071;-62
2022/11/11 08:49:03;;;;;;;4.60;2.30;;;;;;;;;;5088610;28;20383;-66
2022/11/11 08:51:30;;;;;;;8.32;3.30;;;;;;;;;;5068199;28;20042;-64
2022/11/11 08:53:57;;;;;;;4.90;2.97;;;;;;;;;;5086156;28;20112;-61
2022/11/11 08:56:23;;;;;;;5.03;1.90;;;;;;;;;;5086863;27;20525;-65
2022/11/11 08:58:50;;;;;;;6.35;3.15;;;;;;;;;;5085674;28;20055;-65
2022/11/11 09:01:16;;;;;;;5.18;2.53;;;;;;;;;;5072093;28;20175;-68
2022/11/11 09:03:44;;;;;;;6.13;2.22;;;;;;;;;;5086970;28;20039;-64
2022/11/11 09:06:12;;;;;;;5.55;3.10;;;;;;;;;;5089814;28;20051;-67
2022/11/11 09:08:41;;;;;;;6.72;2.92;;;;;;;;;;5072743;28;20063;-63
2022/11/11 09:11:07;;;;;;;7.93;2.53;;;;;;;;;;5087407;28;20031;-61
2022/11/11 09:13:34;;;;;;;7.28;2.92;;;;;;;;;;5094894;27;20036;-62
2022/11/11 09:16:01;;;;;;;7.70;2.92;;;;;;;;;;5088960;28;20139;-62
2022/11/11 09:18:30;;;;;;;4.75;2.53;;;;;;;;;;5089327;28;20044;-62
2022/11/11 09:20:59;;;;;;;4.38;2.50;;;;;;;;;;5089787;28;21780;-62
2022/11/11 09:23:26;;;;;;;6.47;2.33;;;;;;;;;;5088180;28;20232;-62
2022/11/11 09:25:53;;;;;;;7.45;2.83;;;;;;;;;;5087658;28;20093;-65
2022/11/11 09:28:20;;;;;;;10.30;3.22;;;;;;;;;;5088307;28;20032;-62
2022/11/11 09:30:46;;;;;;;4.80;2.22;;;;;;;;;;5089939;27;20134;-64
2022/11/11 09:33:15;;;;;;;5.30;2.30;;;;;;;;;;5088926;28;20076;-64
2022/11/11 09:35:41;;;;;;;9.15;3.10;;;;;;;;;;5073032;28;20036;-62
2022/11/11 09:38:08;;;;;;;6.18;2.65;;;;;;;;;;5088715;28;20403;-59
2022/11/11 09:40:49;;;;;;;13.45;2.17;;;;;;;;;;5088503;28;20092;-61
2022/11/11 09:43:34;;;;;;;5.80;2.42;;;;;;;;;;5089512;28;20039;-63
2022/11/11 09:46:19;;;;;;;3.20;1.67;;;;;;;;;;5087594;28;20043;-62
2022/11/11 09:48:51;;;;;;;4.20;2.45;;;;;;;;;;5087491;28;20083;-61
2022/11/11 09:51:24;;;;;;;4.05;2.05;;;;;;;;;;5086646;28;20047;-62
2022/11/11 09:53:53;;;;;;;4.32;2.15;;;;;;;;;;5087954;28;20502;-61
2022/11/11 09:56:21;;;;;;;6.78;2.92;;;;;;;;;;5086329;28;20391;-63
2022/11/11 09:58:52;;;;;;;5.80;2.78;;;;;;;;;;5087036;28;20040;-65
2022/11/11 10:01:22;;;;;;;4.93;2.17;;;;;;;;;;5087017;28;20726;-62
2022/11/11 10:03:54;;;;;;;3.38;2.22;;;;;;;;;;5088208;28;20504;-61
2022/11/11 10:06:20;;;;;;;4.70;2.13;;;;;;;;;;5087894;27;20055;-62
2022/11/11 10:09:23;;;;;;;4.18;2.15;;;;;;;;;;5086996;28;20044;-63
2022/11/11 10:12:01;;;;;;;5.90;2.13;;;;;;;;;;5019062;28;20934;-62
2022/11/11 10:14:33;;;;;;;3.95;2.03;;;;;;;;;;5078915;27;20487;-61
2022/11/11 10:17:24;;;;;;;5.00;2.45;;;;;;;;;;5087488;28;20050;-62
2022/11/11 10:19:58;;;;;;;8.50;2.92;;;;;;;;;;5085359;28;20052;-62
2022/11/11 10:22:32;;;;;;;2.88;1.65;;;;;;;;;;5085355;28;20491;-59
2022/11/11 10:25:08;;;;;;;5.25;2.47;;;;;;;;;;5087195;28;20028;-62
2022/11/11 10:27:34;;;;;;;15.80;2.30;;;;;;;;;;5086657;28;20044;-63
2022/11/11 10:30:08;;;;;;;10.77;2.72;;;;;;;;;;5086834;28;20598;-64
2022/11/11 10:32:34;;;;;;;4.43;2.08;;;;;;;;;;5079767;28;20032;-64
2022/11/11 10:35:15;;;;;;;7.25;2.15;;;;;;;;;;5087457;28;20042;-64
2022/11/11 10:37:42;;;;;;;4.88;2.08;;;;;;;;;;5084716;28;20039;-63
2022/11/11 10:40:09;;;;;;;6.50;2.20;;;;;;;;;;5086318;28;20051;-64
2022/11/11 10:42:35;;;;;;;3.72;1.73;;;;;;;;;;5065920;28;20065;-62
2022/11/11 10:45:02;;;;;;;5.03;2.50;;;;;;;;;;5086525;28;20040;-62
2022/11/11 10:47:51;;;;;;;5.43;2.45;;;;;;;;;;5084405;28;20035;-65
2022/11/11 10:50:26;;;;;;;5.07;2.83;;;;;;;;;;5084679;28;20075;-66
2022/11/11 10:53:05;;;;;;;3.03;1.65;;;;;;;;;;5083164;28;20437;-63
2022/11/11 10:55:35;;;;;;;7.22;5.00;;;;;;;;;;5085747;27;20435;-62
2022/11/11 10:58:10;;;;;;;13.00;4.68;;;;;;;;;;5085415;28;20092;-62
2022/11/11 11:00:37;;;;;;;9.75;5.15;;;;;;;;;;5086451;28;20040;-64
2022/11/11 11:03:13;;;;;;;9.27;3.40;;;;;;;;;;5087897;28;20078;-63
2022/11/11 11:05:45;;;;;;;5.45;3.00;;;;;;;;;;5084148;28;20044;-61
2022/11/11 11:08:14;;;;;;;7.47;3.78;;;;;;;;;;5083762;28;20119;-64
2022/11/11 11:10:47;;;;;;;8.40;3.53;;;;;;;;;;5085940;28;20054;-63
2022/11/11 11:13:32;;;;;;;7.80;2.85;;;;;;;;;;5087032;28;20035;-63
2022/11/11 11:16:03;;;;;;;5.30;3.00;;;;;;;;;;5101731;27;20051;-63
2022/11/11 11:18:30;;;;;;;4.28;2.50;;;;;;;;;;5070308;27;20039;-61
2022/11/11 11:20:56;;;;;;;10.05;2.92;;;;;;;;;;5079133;28;20047;-64
2022/11/11 11:23:35;;;;;;;4.07;2.28;;;;;;;;;;5086152;28;20035;-62
2022/11/11 11:26:03;;;;;;;10.70;4.13;;;;;;;;;;5083411;28;20042;-63
2022/11/11 11:28:30;;;;;;;4.95;2.63;;;;;;;;;;5084448;28;20066;-61
2022/11/11 11:31:00;;;;;;;5.10;2.28;;;;;;;;;;5085734;28;20085;-64
2022/11/11 11:33:27;;;;;;;6.40;2.83;;;;;;;;;;5084918;27;20089;-62
2022/11/11 11:35:53;;;;;;;5.10;2.70;;;;;;;;;;5085026;28;20027;-62
2022/11/11 11:38:20;;;;;;;5.88;2.60;;;;;;;;;;5084971;27;20138;-63
2022/11/11 11:40:51;;;;;;;5.30;2.45;;;;;;;;;;5087053;28;20128;-61
2022/11/11 11:43:37;;;;;;;4.80;2.33;;;;;;;;;;5085070;28;20503;-62
2022/11/11 11:46:20;;;;;;;5.68;2.88;;;;;;;;;;5086291;28;20049;-60
2022/11/11 11:48:53;;;;;;;5.97;2.50;;;;;;;;;;5083747;28;20079;-62
2022/11/11 11:51:33;;;;;;;3.67;2.08;;;;;;;;;;5084244;28;20067;-62
2022/11/11 11:54:18;;;;;;;10.13;2.70;;;;;;;;;;5064264;28;20036;-60
2022/11/11 11:56:47;;;;;;;7.00;2.33;;;;;;;;;;5083182;28;20047;-61
2022/11/11 11:59:21;;;;;;;5.47;2.50;;;;;;;;;;5086031;28;20043;-62
2022/11/11 12:02:11;;;;;;;8.73;3.03;;;;;;;;;;5084699;28;20051;-63
2022/11/11 12:04:59;;;;;;;3.80;2.05;;;;;;;;;;5079233;28;20152;-61
2022/11/11 12:07:35;;;;;;;5.80;3.50;;;;;;;;;;5084751;28;21048;-63
2022/11/11 12:10:20;;;;;;;6.45;3.42;;;;;;;;;;5085587;28;20086;-61
2022/11/11 12:12:51;;;;;;;6.25;3.40;;;;;;;;;;5084955;28;20044;-62
2022/11/11 12:15:33;;;;;;;5.40;2.70;;;;;;;;;;5082974;28;20044;-64
2022/11/11 12:18:15;;;;;;;3.85;1.88;;;;;;;;;;5086318;28;20036;-62
2022/11/11 12:20:41;;;;;;;7.57;2.88;;;;;;;;;;5085592;28;20684;-63
2022/11/11 12:23:19;;;;;;;4.80;2.42;;;;;;;;;;5085004;28;20036;-60
2022/11/11 12:26:00;;;;;;;4.97;2.13;;;;;;;;;;5084771;27;20040;-63
2022/11/11 12:28:42;;;;;;;6.60;2.92;;;;;;;;;;5086396;28;21779;-63
2022/11/11 12:31:14;;;;;;;6.82;3.22;;;;;;;;;;5086097;28;20040;-61
2022/11/11 12:33:47;;;;;;;9.70;2.67;;;;;;;;;;5085149;28;20085;-63
2022/11/11 12:36:19;;;;;;;6.35;2.63;;;;;;;;;;5083959;28;21145;-61
2022/11/11 12:38:50;;;;;;;7.22;3.17;;;;;;;;;;5084814;28;20086;-62
2022/11/11 12:41:22;;;;;;;6.78;3.60;;;;;;;;;;5085838;28;20044;-63
2022/11/11 12:43:57;;;;;;;9.20;3.63;;;;;;;;;;5084772;28;20039;-63
2022/11/11 12:46:30;;;;;;;6.82;3.30;;;;;;;;;;5085138;28;20126;-63
2022/11/11 12:48:59;;;;;;;5.28;2.72;;;;;;;;;;5067342;28;20131;-63
2022/11/11 12:51:44;;;;;;;4.82;2.42;;;;;;;;;;5087427;28;20059;-64
2022/11/11 12:54:17;;;;;;;4.60;2.10;;;;;;;;;;5086904;27;20122;-63
2022/11/11 12:56:43;;;;;;;5.55;2.95;;;;;;;;;;5086795;28;20036;-62
2022/11/11 12:59:10;;;;;;;8.10;2.80;;;;;;;;;;5087924;28;20044;-60
2022/11/11 13:01:51;;;;;;;6.22;3.80;;;;;;;;;;5087245;27;20059;-61
2022/11/11 13:04:28;;;;;;;18.63;3.33;;;;;;;;;;5068077;28;20691;-62
2022/11/11 13:07:13;;;;;;;8.10;3.72;;;;;;;;;;5088164;28;20047;-64
2022/11/11 13:09:52;;;;;;;8.10;3.10;;;;;;;;;;5085524;28;20051;-61
2022/11/11 13:12:31;;;;;;;7.78;3.58;;;;;;;;;;5072427;28;20063;-62
2022/11/11 13:15:03;;;;;;;8.85;3.50;;;;;;;;;;5071402;28;20039;-63
2022/11/11 13:17:31;;;;;;;7.35;3.25;;;;;;;;;;5088291;28;20040;-66
2022/11/11 13:20:14;;;;;;;5.47;3.00;;;;;;;;;;5087113;28;20103;-62
2022/11/11 13:22:40;;;;;;;7.38;3.53;;;;;;;;;;5087475;28;20139;-63
2022/11/11 13:25:07;;;;;;;4.65;2.30;;;;;;;;;;5086129;27;20036;-62
2022/11/11 13:27:43;;;;;;;6.80;2.53;;;;;;;;;;5084232;28;20043;-63
2022/11/11 13:30:28;;;;;;;8.93;3.92;;;;;;;;;;5086154;27;20051;-63
2022/11/11 13:32:56;;;;;;;7.20;2.65;;;;;;;;;;5087392;28;20529;-64
2022/11/11 13:35:22;;;;;;;7.05;2.85;;;;;;;;;;5085259;28;20036;-64
2022/11/11 13:37:49;;;;;;;7.30;3.00;;;;;;;;;;5086706;28;20133;-63
2022/11/11 13:40:45;;;;;;;5.60;2.63;;;;;;;;;;5066778;28;20167;-63
2022/11/11 13:43:23;;;;;;;6.63;2.38;;;;;;;;;;5056982;28;21033;-62
2022/11/11 13:45:52;;;;;;;6.75;2.47;;;;;;;;;;5064508;28;20101;-63
2022/11/11 13:48:21;;;;;;;6.85;3.50;;;;;;;;;;5066055;28;20514;-64
2022/11/11 13:50:48;;;;;;;7.20;3.60;;;;;;;;;;5067614;28;20410;-61
2022/11/11 13:53:26;;;;;;;6.00;2.88;;;;;;;;;;5068507;28;20032;-61
2022/11/11 13:55:54;;;;;;;4.90;2.70;;;;;;;;;;5064845;28;20061;-62
2022/11/11 13:58:31;;;;;;;5.38;2.50;;;;;;;;;;5065362;28;20091;-64
2022/11/11 14:01:03;;;;;;;7.03;2.88;;;;;;;;;;5049284;28;20040;-62
2022/11/11 14:03:31;;;;;;;6.25;3.05;;;;;;;;;;5048025;28;20037;-62
2022/11/11 14:06:24;;;;;;;6.70;2.78;;;;;;;;;;5065827;28;20036;-62
2022/11/11 14:08:51;;;;;;;5.22;2.50;;;;;;;;;;5040759;28;20119;-65
2022/11/11 14:11:24;;;;;;;4.13;2.50;;;;;;;;;;5066990;28;20043;-63
2022/11/11 14:14:10;;;;;;;5.47;2.90;;;;;;;;;;5067507;28;20057;-62
2022/11/11 14:16:37;;;;;;;9.18;3.60;;;;;;;;;;5064430;28;20104;-62
2022/11/11 14:19:19;;;;;;;8.35;2.92;;;;;;;;;;5055404;28;20075;-62
2022/11/11 14:21:48;;;;;;;4.10;2.45;;;;;;;;;;5065294;28;20044;-63
2022/11/11 14:24:23;;;;;;;7.03;2.88;;;;;;;;;;5065961;28;20047;-69
2022/11/11 14:26:59;;;;;;;4.82;2.10;;;;;;;;;;5066705;28;20032;-64
2022/11/11 14:29:34;;;;;;;8.50;3.17;;;;;;;;;;5064207;28;20083;-64
2022/11/11 14:32:01;;;;;;;6.45;2.85;;;;;;;;;;5067111;28;20036;-65
2022/11/11 14:34:32;;;;;;;5.70;2.80;;;;;;;;;;5066732;28;20523;-65
2022/11/11 14:37:14;;;;;;;9.43;3.22;;;;;;;;;;5066219;28;20040;-63
2022/11/11 14:39:41;;;;;;;8.63;2.78;;;;;;;;;;5081155;27;20076;-62
2022/11/11 14:42:26;;;;;;;6.10;2.83;;;;;;;;;;5085571;28;20040;-64
2022/11/11 14:44:52;;;;;;;4.88;2.70;;;;;;;;;;5086881;28;20488;-66
2022/11/11 14:47:23;;;;;;;5.97;2.95;;;;;;;;;;5084712;28;20076;-62
2022/11/11 14:49:54;;;;;;;6.72;2.97;;;;;;;;;;5086931;27;20055;-64
2022/11/11 14:52:26;;;;;;;5.47;2.75;;;;;;;;;;5085270;28;20055;-64
2022/11/11 14:54:53;;;;;;;5.88;2.17;;;;;;;;;;5085553;28;20059;-65
2022/11/11 14:57:22;;;;;;;5.70;2.83;;;;;;;;;;5087154;28;20036;-61
2022/11/11 14:59:50;;;;;;;5.00;2.38;;;;;;;;;;5054330;28;20036;-60
2022/11/11 15:02:25;;;;;;;6.85;2.85;;;;;;;;;;5085098;28;20042;-62
2022/11/11 15:04:52;;;;;;;8.65;2.97;;;;;;;;;;5085276;27;20032;-66
2022/11/11 15:07:26;;;;;;;5.80;3.10;;;;;;;;;;5068992;28;20044;-63
2022/11/11 15:10:11;;;;;;;8.88;2.75;;;;;;;;;;5083321;28;20047;-61
2022/11/11 15:12:41;;;;;;;13.50;6.60;;;;;;;;;;5082879;28;20105;-63
2022/11/11 15:15:17;;;;;;;10.27;4.10;;;;;;;;;;5085684;28;20036;-61
2022/11/11 15:18:01;;;;;;;7.38;2.78;;;;;;;;;;5083994;28;20085;-63
2022/11/11 15:20:27;;;;;;;8.02;3.67;;;;;;;;;;5084200;28;20097;-64
2022/11/11 15:23:29;;;;;;;6.00;3.22;;;;;;;;;;5085190;28;20047;-64
2022/11/11 15:26:01;;;;;;;5.65;2.85;;;;;;;;;;4979992;28;20578;-65
2022/11/11 15:28:27;;;;;;;6.95;3.17;;;;;;;;;;5056672;28;20047;-63
2022/11/11 15:31:10;;;;;;;9.43;4.78;;;;;;;;;;5083833;28;20178;-65
2022/11/11 15:33:42;;;;;;;7.10;3.55;;;;;;;;;;5084315;28;20148;-64
2022/11/11 15:36:27;;;;;;;8.35;4.35;;;;;;;;;;5083488;27;20212;-64
2022/11/11 15:38:55;;;;;;;9.18;4.65;;;;;;;;;;5084509;28;20057;-64
2022/11/11 15:41:32;;;;;;;11.88;4.22;;;;;;;;;;5083625;28;20032;-65
2022/11/11 15:43:59;;;;;;;8.23;3.47;;;;;;;;;;5085575;28;20051;-64
2022/11/11 15:46:28;;;;;;;5.57;2.92;;;;;;;;;;5082792;28;20555;-64
2022/11/11 15:48:54;;;;;;;8.63;3.88;;;;;;;;;;5085356;28;21747;-64
2022/11/11 15:51:29;;;;;;;10.15;4.10;;;;;;;;;;5083603;28;20039;-63
2022/11/11 15:54:09;;;;;;;7.78;3.00;;;;;;;;;;5083083;28;20047;-61
2022/11/11 15:56:37;;;;;;;11.60;3.55;;;;;;;;;;5082401;27;20446;-64
2022/11/11 15:59:17;;;;;;;6.80;3.42;;;;;;;;;;5086046;28;20127;-65
2022/11/11 16:01:43;;;;;;;12.52;4.28;;;;;;;;;;5084269;28;20036;-63
2022/11/11 16:04:16;;;;;;;9.32;4.15;;;;;;;;;;5085175;28;20081;-65
2022/11/11 16:06:43;;;;;;;7.88;3.55;;;;;;;;;;5084153;28;20575;-64
2022/11/11 16:09:12;;;;;;;6.43;3.30;;;;;;;;;;5083861;28;20039;-64
2022/11/11 16:11:39;;;;;;;8.40;3.63;;;;;;;;;;5083988;28;20130;-65
2022/11/11 16:14:06;;;;;;;9.70;4.07;;;;;;;;;;5083080;28;20035;-62
2022/11/11 16:16:36;;;;;;;10.85;4.22;;;;;;;;;;5084096;28;20089;-64
2022/11/11 16:19:21;;;;;;;8.18;4.30;;;;;;;;;;5085027;28;20048;-65